Time;durP1;ratioP1;P1;durP2;ratioP2;P2;SDS_P1;SDS_P2;PMS_P1;PMS_P2;Temp;Humidity;BMP_temperature;BMP_pressure;BME280_temperature;BME280_humidity;BME280_pressure;Samples;Min_cycle;Max_cycle;Signal;HPM_P1;HPM_P2
2024/04/10 00:03:53;;;;;;;15.63;8.93;;;8.00;99.90;;;;;;22413176;26;20106;-38
2024/04/10 00:13:55;;;;;;;13.52;9.18;;;8.00;99.90;;;;;;22414126;26;20125;-39
2024/04/10 00:23:56;;;;;;;16.95;9.00;;;8.10;99.90;;;;;;22415812;26;20035;-38
2024/04/10 00:33:58;;;;;;;16.27;8.93;;;8.10;99.90;;;;;;22415344;26;20000;-39
2024/04/10 00:44:00;;;;;;;14.88;8.13;;;8.10;99.90;;;;;;22414255;26;20071;-39
2024/04/10 00:54:05;;;;;;;15.07;7.65;;;8.10;99.90;;;;;;22413651;26;20027;-39
2024/04/10 01:04:07;;;;;;;11.25;6.50;;;7.80;99.90;;;;;;22412907;26;20740;-38
2024/04/10 01:14:08;;;;;;;9.40;6.53;;;8.20;99.90;;;;;;22408101;26;20031;-38
2024/04/10 01:24:10;;;;;;;8.57;5.03;;;8.30;99.90;;;;;;22380711;26;20064;-39
2024/04/10 01:34:15;;;;;;;14.65;6.85;;;8.30;99.90;;;;;;22408138;26;20111;-38
2024/04/10 01:44:16;;;;;;;15.02;6.88;;;8.00;99.90;;;;;;22411194;26;20031;-38
2024/04/10 01:54:19;;;;;;;12.38;7.82;;;8.30;99.90;;;;;;22374995;26;20035;-39
2024/04/10 02:04:21;;;;;;;14.35;8.98;;;8.20;99.90;;;;;;22407366;26;20036;-39
2024/04/10 02:14:23;;;;;;;15.82;9.07;;;8.10;99.90;;;;;;22407902;26;20539;-39
2024/04/10 02:24:24;;;;;;;13.82;7.82;;;8.00;99.90;;;;;;22404257;26;20383;-38
2024/04/10 02:34:26;;;;;;;9.60;6.60;;;8.10;99.90;;;;;;22404228;26;20028;-39
2024/04/10 02:44:28;;;;;;;5.22;3.63;;;8.00;99.90;;;;;;22404371;26;20035;-38
2024/04/10 02:54:30;;;;;;;5.78;3.38;;;8.10;99.90;;;;;;22406329;26;20000;-38
2024/04/10 03:04:34;;;;;;;5.93;3.20;;;8.10;99.90;;;;;;22406259;26;20098;-39
2024/04/10 03:14:39;;;;;;;7.85;3.63;;;8.10;99.90;;;;;;22405650;26;20028;-39
2024/04/10 03:24:41;;;;;;;6.28;4.15;;;8.10;99.90;;;;;;22399982;26;20040;-38
2024/04/10 03:34:43;;;;;;;11.10;4.95;;;8.00;99.90;;;;;;22404285;26;20031;-39
2024/04/10 03:44:44;;;;;;;8.75;5.43;;;8.00;99.90;;;;;;22404560;26;20027;-38
2024/04/10 03:54:46;;;;;;;8.07;4.95;;;8.00;99.90;;;;;;22400838;26;20162;-39
2024/04/10 04:04:48;;;;;;;9.90;5.47;;;8.00;99.90;;;;;;22398418;26;20340;-38
2024/04/10 04:14:50;;;;;;;10.20;6.00;;;8.10;99.90;;;;;;22401385;26;20036;-38
2024/04/10 04:24:54;;;;;;;7.40;5.03;;;8.00;99.90;;;;;;22398736;26;20027;-39
2024/04/10 04:35:04;;;;;;;7.35;3.90;;;7.80;99.90;;;;;;22400196;26;20496;-38
2024/04/10 04:45:07;;;;;;;4.05;3.15;;;7.70;99.90;;;;;;22415436;26;20004;-39
2024/04/10 04:55:09;;;;;;;3.03;1.90;;;7.10;99.90;;;;;;22412474;26;20036;-39
2024/04/10 05:05:16;;;;;;;4.50;1.45;;;6.70;99.90;;;;;;22413431;26;20027;-39
2024/04/10 05:15:18;;;;;;;6.65;1.50;;;6.30;99.90;;;;;;22412930;26;20457;-38
2024/04/10 05:25:19;;;;;;;1.40;0.85;;;6.10;99.90;;;;;;22409507;26;20027;-38
2024/04/10 05:35:21;;;;;;;3.83;1.10;;;5.70;99.90;;;;;;22412623;26;20031;-38
2024/04/10 05:45:23;;;;;;;1.90;0.80;;;5.60;99.90;;;;;;22410577;26;20027;-38
2024/04/10 05:55:25;;;;;;;1.65;0.52;;;5.40;99.90;;;;;;22409881;26;20055;-38
2024/04/10 06:05:27;;;;;;;0.70;0.60;;;5.10;99.90;;;;;;22407916;26;20110;-38
2024/04/10 06:15:28;;;;;;;2.42;0.68;;;5.20;99.90;;;;;;22378320;26;20027;-38
2024/04/10 06:25:30;;;;;;;1.33;0.60;;;5.10;99.90;;;;;;22408830;26;20134;-38
2024/04/10 06:35:32;;;;;;;2.85;0.80;;;5.20;99.90;;;;;;22408450;26;20537;-38
2024/04/10 06:45:34;;;;;;;2.88;0.80;;;5.30;99.90;;;;;;22402652;26;20512;-38
2024/04/10 06:55:36;;;;;;;0.63;0.50;;;5.30;99.90;;;;;;22402006;26;20501;-34
2024/04/10 07:05:42;;;;;;;3.47;0.50;;;5.50;99.90;;;;;;22403157;26;20023;-38
2024/04/10 07:15:44;;;;;;;3.25;0.60;;;5.80;99.90;;;;;;22402128;26;20032;-37
2024/04/10 07:25:45;;;;;;;1.00;0.43;;;5.70;99.90;;;;;;22401138;26;20344;-38
2024/04/10 07:37:28;;;;;;;0.97;0.43;;;5.30;99.90;;;;;;22771161;25;20349;-37
2024/04/10 07:47:30;;;;;;;2.13;0.40;;;5.30;99.90;;;;;;22641278;26;20051;-37
2024/04/10 07:57:35;;;;;;;2.55;0.32;;;5.50;99.90;;;;;;22631972;26;20030;-38
2024/04/10 08:07:36;;;;;;;0.90;0.50;;;5.50;99.90;;;;;;22630637;26;20434;-37
2024/04/10 08:17:40;;;;;;;0.80;0.50;;;5.00;99.90;;;;;;22624027;26;20043;-41
2024/04/10 08:27:42;;;;;;;0.77;0.40;;;4.70;99.90;;;;;;22624382;26;20430;-38
2024/04/10 08:37:44;;;;;;;0.98;0.28;;;4.70;99.90;;;;;;22622756;26;20093;-38
2024/04/10 08:47:47;;;;;;;0.50;0.30;;;4.70;99.90;;;;;;22563652;26;20046;-38
2024/04/10 08:57:49;;;;;;;0.35;0.22;;;4.80;99.90;;;;;;22564412;26;20057;-38
2024/04/10 09:07:58;;;;;;;1.88;0.43;;;5.10;99.90;;;;;;22559126;26;20484;-39
2024/04/10 09:17:59;;;;;;;0.85;0.20;;;4.30;99.90;;;;;;22555994;26;20035;-38
2024/04/10 09:28:03;;;;;;;0.88;0.40;;;4.30;99.90;;;;;;22556886;26;20034;-39
2024/04/10 09:38:05;;;;;;;0.20;0.20;;;4.40;99.90;;;;;;22534923;26;20144;-39
2024/04/10 09:48:14;;;;;;;0.60;0.20;;;4.60;99.90;;;;;;22556290;26;20093;-38
2024/04/10 09:58:16;;;;;;;0.85;0.32;;;5.10;99.90;;;;;;22584759;26;20038;-38
2024/04/10 10:08:18;;;;;;;0.40;0.30;;;5.00;99.90;;;;;;22544173;26;20038;-38
2024/04/10 10:18:23;;;;;;;0.38;0.20;;;4.70;99.90;;;;;;22525463;26;20031;-38
2024/04/10 10:28:31;;;;;;;0.50;0.15;;;4.70;99.90;;;;;;22551009;26;20100;-38
2024/04/10 10:38:33;;;;;;;0.50;0.20;;;4.80;99.90;;;;;;22552291;26;20088;-39
2024/04/10 10:48:36;;;;;;;1.30;0.20;;;4.60;99.90;;;;;;22550479;26;20035;-37
2024/04/10 10:58:41;;;;;;;0.20;0.10;;;4.70;99.90;;;;;;22530974;26;20500;-38
2024/04/10 11:08:43;;;;;;;0.98;0.10;;;4.30;99.90;;;;;;22550628;26;20035;-38
2024/04/10 11:18:46;;;;;;;0.47;0.20;;;4.20;99.90;;;;;;22314614;26;20010;-38
2024/04/10 11:28:59;;;;;;;0.22;0.10;;;4.60;99.90;;;;;;22289545;26;20011;-38
2024/04/10 11:39:01;;;;;;;0.77;0.20;;;5.20;99.90;;;;;;22200130;26;20046;-38
2024/04/10 11:49:05;;;;;;;0.90;0.20;;;5.80;99.90;;;;;;22323224;26;20036;-38
2024/04/10 11:59:07;;;;;;;0.40;0.20;;;5.70;99.90;;;;;;22551067;26;20093;-38
2024/04/10 12:09:09;;;;;;;0.47;0.20;;;4.70;99.90;;;;;;22551466;26;20038;-38
2024/04/10 12:19:11;;;;;;;0.20;0.20;;;4.60;99.90;;;;;;22552082;26;20034;-37
2024/04/10 12:29:13;;;;;;;0.50;0.22;;;5.00;99.90;;;;;;22565279;26;20038;-39
2024/04/10 12:39:18;;;;;;;1.55;0.40;;;5.70;99.90;;;;;;22559289;26;20085;-38
2024/04/10 12:49:20;;;;;;;1.08;0.20;;;5.50;99.90;;;;;;22555801;26;20045;-37
2024/04/10 12:59:23;;;;;;;0.77;0.40;;;4.80;99.90;;;;;;22564173;26;20035;-38
2024/04/10 13:09:25;;;;;;;0.73;0.22;;;4.60;99.90;;;;;;22562466;26;20026;-37
2024/04/10 13:19:28;;;;;;;1.48;0.20;;;4.50;99.90;;;;;;22556312;26;20034;-37
2024/04/10 13:29:30;;;;;;;1.02;0.20;;;4.50;99.90;;;;;;22553668;26;20043;-37
2024/04/10 13:39:31;;;;;;;0.20;0.20;;;4.70;99.90;;;;;;22557999;26;20030;-38
2024/04/10 13:49:33;;;;;;;0.45;0.30;;;4.90;99.90;;;;;;22553006;26;20026;-38
2024/04/10 13:59:35;;;;;;;0.75;0.20;;;4.60;99.90;;;;;;22555167;26;20027;-37
2024/04/10 14:09:37;;;;;;;0.43;0.22;;;4.40;99.90;;;;;;22635802;26;20554;-38
2024/04/10 14:19:38;;;;;;;0.47;0.17;;;4.40;99.90;;;;;;22590913;26;20089;-39
2024/04/10 14:29:40;;;;;;;2.05;0.22;;;4.10;99.90;;;;;;22548333;26;20027;-38
2024/04/10 14:39:42;;;;;;;0.10;0.10;;;4.00;99.90;;;;;;22550588;26;20039;-38
2024/04/10 14:49:46;;;;;;;0.38;0.20;;;3.90;99.90;;;;;;22556320;26;20117;-38
2024/04/10 14:59:54;;;;;;;0.60;0.38;;;4.10;99.90;;;;;;22553575;26;20030;-38
2024/04/10 15:09:56;;;;;;;0.17;0.13;;;4.20;99.90;;;;;;22499069;26;20031;-38
2024/04/10 15:19:57;;;;;;;0.28;0.10;;;4.30;99.90;;;;;;22550114;26;20034;-38
2024/04/10 15:30:06;;;;;;;1.00;0.30;;;4.30;99.90;;;;;;22549971;26;20043;-38
2024/04/10 15:40:10;;;;;;;1.55;0.30;;;4.50;99.90;;;;;;22541114;26;20035;-38
2024/04/10 15:50:15;;;;;;;0.50;0.38;;;4.60;99.90;;;;;;22550207;26;20483;-38
2024/04/10 16:00:17;;;;;;;0.77;0.40;;;4.50;99.90;;;;;;22560477;26;20500;-38
2024/04/10 16:10:19;;;;;;;1.88;0.70;;;4.40;99.90;;;;;;22562337;26;20863;-38
2024/04/10 16:20:27;;;;;;;1.08;0.50;;;4.50;99.90;;;;;;22566441;26;20038;-39
2024/04/10 16:30:37;;;;;;;0.20;0.20;;;4.50;99.90;;;;;;22561793;26;20093;-38
2024/04/10 16:40:39;;;;;;;0.35;0.20;;;4.70;99.90;;;;;;22567368;26;20049;-38
2024/04/10 16:50:40;;;;;;;1.27;0.40;;;5.00;99.90;;;;;;22578271;26;20034;-38
2024/04/10 17:00:46;;;;;;;0.32;0.20;;;5.10;99.90;;;;;;22558304;26;20044;-38
2024/04/10 17:10:48;;;;;;;0.45;0.43;;;5.20;99.90;;;;;;22583676;26;20031;-37
2024/04/10 17:31:17;;;;;;;3.22;0.45;;;5.40;99.90;;;;;;22711403;26;20126;-38
2024/04/10 17:41:21;;;;;;;1.10;0.40;;;5.50;99.90;;;;;;22588555;26;20049;-38
2024/04/10 17:51:23;;;;;;;0.50;0.30;;;5.40;99.90;;;;;;22559287;26;20034;-39
2024/04/10 18:01:25;;;;;;;1.10;0.40;;;5.70;99.90;;;;;;22679271;26;20029;-38
2024/04/10 18:11:26;;;;;;;0.28;0.20;;;5.80;99.90;;;;;;22631218;26;20030;-38
2024/04/10 18:21:28;;;;;;;2.35;0.20;;;5.90;99.90;;;;;;22675230;26;20026;-39
2024/04/10 18:31:31;;;;;;;0.70;0.38;;;5.80;99.90;;;;;;22707228;26;20372;-37
2024/04/10 18:41:36;;;;;;;1.42;0.32;;;5.70;99.90;;;;;;22662969;26;20553;-39
2024/04/10 18:51:38;;;;;;;0.68;0.40;;;5.70;99.90;;;;;;22652787;26;20026;-39
2024/04/10 19:01:40;;;;;;;1.88;0.50;;;6.00;99.90;;;;;;22685387;26;20062;-38
2024/04/10 19:11:42;;;;;;;0.80;0.15;;;6.20;99.90;;;;;;22629807;26;20026;-38
2024/04/10 19:21:44;;;;;;;2.42;0.20;;;6.30;99.90;;;;;;22653649;26;20002;-38
2024/04/10 19:31:46;;;;;;;0.80;0.20;;;6.20;99.90;;;;;;22703053;26;20483;-38
2024/04/10 19:41:48;;;;;;;0.63;0.22;;;6.30;99.90;;;;;;22703221;26;20407;-39
2024/04/10 19:51:50;;;;;;;0.40;0.20;;;6.60;99.90;;;;;;22615576;26;20546;-38
2024/04/10 20:01:55;;;;;;;2.55;0.30;;;6.80;99.90;;;;;;22633545;26;20011;-38
2024/04/10 20:11:56;;;;;;;0.70;0.20;;;6.40;99.90;;;;;;22620746;26;20039;-38
2024/04/10 20:21:58;;;;;;;1.48;0.30;;;6.40;99.90;;;;;;22582428;26;20090;-38
2024/04/10 20:32:00;;;;;;;0.82;0.20;;;6.50;99.90;;;;;;22625595;26;20035;-39
2024/04/10 20:42:02;;;;;;;0.30;0.10;;;6.80;99.90;;;;;;22582177;26;20442;-38
2024/04/10 20:52:04;;;;;;;0.98;0.30;;;6.80;99.90;;;;;;22601058;26;20030;-38
2024/04/10 21:02:09;;;;;;;1.95;0.47;;;6.80;99.90;;;;;;22713187;26;20468;-39
2024/04/10 22:14:15;;;;;;;1.90;0.40;;;6.50;99.90;;;;;;22705024;26;20034;-38
2024/04/10 22:24:18;;;;;;;0.57;0.25;;;6.70;99.90;;;;;;22708255;26;20029;-38
2024/04/10 22:34:21;;;;;;;1.48;0.30;;;7.00;99.90;;;;;;22664008;26;20002;-38
2024/04/10 22:44:23;;;;;;;0.60;0.30;;;6.80;99.90;;;;;;22570857;26;20078;-38
2024/04/10 22:54:25;;;;;;;1.85;0.20;;;6.90;99.90;;;;;;22629391;26;20026;-37
2024/04/10 23:04:29;;;;;;;1.00;0.17;;;7.00;99.90;;;;;;22616290;26;20006;-37
2024/04/10 23:14:34;;;;;;;1.45;0.20;;;6.90;99.90;;;;;;22705916;26;20030;-37
2024/04/10 23:24:38;;;;;;;0.80;0.20;;;6.70;99.90;;;;;;22704689;26;20017;-38
2024/04/10 23:34:40;;;;;;;0.80;0.22;;;7.40;99.90;;;;;;22655320;26;20030;-38
2024/04/10 23:44:42;;;;;;;1.27;0.30;;;7.50;99.90;;;;;;22701324;26;20043;-38
2024/04/10 23:54:43;;;;;;;0.47;0.10;;;7.70;99.90;;;;;;22569632;26;20034;-38
